Time;durP1;ratioP1;P1;durP2;ratioP2;P2;SDS_P1;SDS_P2;PMS_P1;PMS_P2;Temp;Humidity;BMP_temperature;BMP_pressure;BME280_temperature;BME280_humidity;BME280_pressure;Samples;Min_cycle;Max_cycle;Signal;HPM_P1;HPM_P2
2022/05/28 00:00:26;;;;;;;11.05;6.20;;;;;;;16.09;67.77;93278.97;5091613;28;20099;-48
2022/05/28 00:02:52;;;;;;;6.20;5.60;;;;;;;15.99;68.60;93278.22;5091425;28;20528;-48
2022/05/28 00:05:17;;;;;;;10.32;6.70;;;;;;;15.91;68.70;93261.69;5091167;28;20497;-51
2022/05/28 00:07:43;;;;;;;8.88;6.40;;;;;;;15.95;69.07;93281.47;5091322;28;20077;-49
2022/05/28 00:10:15;;;;;;;13.43;6.32;;;;;;;15.74;69.59;93284.13;5105548;28;20051;-50
2022/05/28 00:12:41;;;;;;;7.28;5.82;;;;;;;15.78;68.86;93268.44;5111574;28;20538;-50
2022/05/28 00:15:07;;;;;;;7.45;6.15;;;;;;;15.94;69.03;93289.06;5111763;28;20028;-48
2022/05/28 00:17:33;;;;;;;6.95;5.72;;;;;;;15.95;69.19;93284.25;5111400;28;20610;-48
2022/05/28 00:19:59;;;;;;;10.18;6.88;;;;;;;15.92;69.15;93282.63;5111752;28;20035;-53
2022/05/28 00:22:24;;;;;;;11.48;7.75;;;;;;;15.91;69.42;93281.19;5111504;28;20028;-49
2022/05/28 00:24:50;;;;;;;9.95;5.97;;;;;;;15.85;68.85;93283.53;5111660;28;20436;-48
2022/05/28 00:27:16;;;;;;;8.30;6.20;;;;;;;15.63;69.19;93277.09;5111566;28;20419;-48
2022/05/28 00:29:41;;;;;;;10.63;6.47;;;;;;;15.68;68.75;93276.06;5111272;28;20454;-47
2022/05/28 00:32:07;;;;;;;7.85;5.72;;;;;;;15.69;68.76;93276.78;5111481;28;20077;-48
2022/05/28 00:34:34;;;;;;;13.82;6.72;;;;;;;15.60;69.77;93275.47;5111416;28;20104;-48
2022/05/28 00:37:00;;;;;;;9.60;6.82;;;;;;;15.61;69.63;93268.59;5111108;28;20053;-48
2022/05/28 00:39:25;;;;;;;10.55;6.32;;;;;;;15.46;69.75;93268.16;5111319;28;20024;-49
2022/05/28 00:41:51;;;;;;;12.23;7.43;;;;;;;15.45;69.78;93269.47;5110923;28;20439;-50
2022/05/28 00:44:16;;;;;;;11.98;7.68;;;;;;;15.36;70.31;93259.75;5111294;28;20024;-48
2022/05/28 00:46:42;;;;;;;8.75;6.75;;;;;;;15.54;69.90;93260.38;5111262;28;20043;-51
2022/05/28 00:49:15;;;;;;;8.15;6.43;;;;;;;15.43;69.97;93249.81;5110721;28;20397;-49
2022/05/28 00:51:44;;;;;;;9.00;6.43;;;;;;;15.49;69.43;93247.50;5110964;28;20051;-48
2022/05/28 00:54:09;;;;;;;;;;;;;;;15.49;69.38;93236.38;5105360;28;20024;-49
2022/05/28 00:56:37;;;;;;;12.50;6.30;;;;;;;15.44;69.08;93232.56;5089614;28;19998;-50
2022/05/28 00:59:03;;;;;;;7.95;6.38;;;;;;;15.41;69.09;93235.75;5089257;28;20477;-49
2022/05/28 01:01:30;;;;;;;9.60;6.70;;;;;;;15.42;68.77;93237.22;5090615;28;20099;-49
2022/05/28 01:04:17;;;;;;;6.72;6.03;;;;;;;15.41;68.78;93236.50;5090347;28;20032;-49
2022/05/28 01:06:51;;;;;;;8.35;6.20;;;;;;;15.22;69.32;93232.97;5090668;28;20394;-48
2022/05/28 01:09:41;;;;;;;10.90;6.10;;;;;;;15.06;69.18;93229.72;5089918;28;20076;-50
2022/05/28 01:12:12;;;;;;;9.40;6.35;;;;;;;15.08;69.61;93236.19;5090113;28;20048;-51
2022/05/28 01:14:44;;;;;;;13.95;6.78;;;;;;;14.89;70.10;93243.75;5090528;28;20028;-49
2022/05/28 01:17:13;;;;;;;13.57;9.38;;;;;;;14.85;71.00;93240.66;5090537;28;20040;-48
2022/05/28 01:19:54;;;;;;;10.20;7.45;;;;;;;14.98;71.03;93237.47;5089319;28;20024;-48
2022/05/28 01:22:49;;;;;;;11.15;9.02;;;;;;;15.00;71.49;93237.63;5090392;28;20032;-48
2022/05/28 01:25:38;;;;;;;10.60;8.93;;;;;;;14.97;71.36;93244.34;5090249;28;20036;-48
2022/05/28 01:28:07;;;;;;;12.00;8.20;;;;;;;14.77;72.50;93243.56;5089016;28;20072;-49
2022/05/28 01:30:33;;;;;;;9.73;7.78;;;;;;;14.72;72.73;93243.84;5088944;28;20493;-50
2022/05/28 01:32:59;;;;;;;9.77;8.50;;;;;;;14.75;72.74;93237.84;5090369;28;20055;-51
2022/05/28 01:35:26;;;;;;;13.50;9.15;;;;;;;14.76;72.92;93244.88;5089196;28;20067;-49
2022/05/28 01:37:52;;;;;;;13.32;8.18;;;;;;;14.71;73.66;93240.34;5090420;28;20081;-49
2022/05/28 01:40:19;;;;;;;9.52;7.75;;;;;;;14.75;73.82;93245.47;5089934;28;20027;-50
2022/05/28 01:42:48;;;;;;;10.20;8.20;;;;;;;14.80;73.61;93256.31;5089071;28;20416;-48
2022/05/28 01:45:15;;;;;;;12.60;7.88;;;;;;;14.98;72.18;93252.13;5089153;28;20107;-48
2022/05/28 01:47:43;;;;;;;9.07;6.90;;;;;;;15.05;71.21;93258.88;5089912;28;20028;-50
2022/05/28 01:50:09;;;;;;;13.00;7.85;;;;;;;15.06;70.81;93255.50;5092527;28;20057;-48
2022/05/28 01:52:35;;;;;;;12.65;8.52;;;;;;;15.08;71.37;93258.41;5108760;28;20089;-49
2022/05/28 01:55:02;;;;;;;12.68;7.85;;;;;;;15.17;71.06;93260.50;5109846;28;20394;-50
2022/05/28 01:57:27;;;;;;;8.88;7.20;;;;;;;15.02;72.36;93252.41;5110133;28;20024;-52
2022/05/28 01:59:53;;;;;;;9.98;7.32;;;;;;;15.00;72.34;93249.50;5111236;28;20031;-48
2022/05/28 02:02:18;;;;;;;13.73;6.90;;;;;;;15.16;70.96;93249.94;5113996;28;20031;-49
2022/05/28 02:04:46;;;;;;;11.30;6.50;;;;;;;15.24;70.32;93244.97;5114045;28;20027;-48
2022/05/28 02:07:12;;;;;;;11.70;7.38;;;;;;;15.31;70.45;93246.16;5112776;28;20084;-49
2022/05/28 02:09:44;;;;;;;9.60;7.38;;;;;;;15.17;71.04;93246.59;5113546;28;20027;-49
2022/05/28 02:12:13;;;;;;;8.93;6.45;;;;;;;15.29;71.46;93262.69;5112536;28;20054;-50
2022/05/28 02:15:07;;;;;;;7.60;6.13;;;;;;;15.37;70.63;93305.75;5113897;28;20031;-48
2022/05/28 02:17:39;;;;;;;11.93;8.40;;;;;;;15.35;69.73;93343.81;5095757;28;20753;-49
2022/05/28 02:20:40;;;;;;;13.50;9.77;;;;;;;15.06;72.42;93352.81;5114201;28;20032;-49
2022/05/28 02:23:29;;;;;;;14.07;10.23;;;;;;;15.01;73.75;93345.47;5092815;28;20573;-52
2022/05/28 02:26:12;;;;;;;14.95;10.85;;;;;;;15.15;73.56;93327.09;5113816;28;20412;-48
2022/05/28 02:28:38;;;;;;;14.38;9.02;;;;;;;15.15;74.51;93320.78;5113940;28;20042;-48
2022/05/28 02:31:31;;;;;;;14.45;9.98;;;;;;;15.19;75.26;93321.06;5112723;28;20035;-48
2022/05/28 02:33:57;;;;;;;10.82;8.60;;;;;;;15.12;75.83;93317.13;5111683;27;20044;-50
2022/05/28 02:36:23;;;;;;;11.50;9.50;;;;;;;15.16;76.51;93314.63;5113478;27;20580;-48
2022/05/28 02:38:49;;;;;;;11.27;8.63;;;;;;;15.23;76.77;93312.28;5113458;28;20533;-49
2022/05/28 02:41:15;;;;;;;11.13;8.80;;;;;;;15.32;76.54;93292.09;5113579;28;20507;-48
2022/05/28 02:43:41;;;;;;;13.52;9.43;;;;;;;15.24;75.84;93275.56;5113627;28;20020;-50
2022/05/28 02:46:07;;;;;;;11.98;8.18;;;;;;;15.37;75.53;93296.66;5111994;28;20539;-51
2022/05/28 02:48:33;;;;;;;11.88;8.90;;;;;;;15.36;75.93;93306.31;5093172;28;20462;-49
2022/05/28 02:51:12;;;;;;;12.07;8.77;;;;;;;15.44;75.92;93306.97;5093130;28;20031;-49
2022/05/28 02:53:38;;;;;;;11.88;9.13;;;;;;;15.43;76.17;93297.88;5093050;28;20028;-51
2022/05/28 02:56:05;;;;;;;10.63;8.70;;;;;;;15.59;75.87;93285.13;5092704;28;20039;-49
2022/05/28 02:58:30;;;;;;;9.02;7.30;;;;;;;15.67;75.44;93288.53;5092886;28;20413;-49
2022/05/28 03:00:56;;;;;;;10.70;6.75;;;;;;;15.82;75.13;93285.44;5092839;28;20032;-48
2022/05/28 03:03:22;;;;;;;10.48;6.55;;;;;;;15.96;75.37;93296.13;5092286;28;20504;-48
2022/05/28 03:05:48;;;;;;;14.75;6.25;;;;;;;15.84;75.62;93291.16;5090867;28;20055;-50
2022/05/28 03:08:13;;;;;;;14.07;6.93;;;;;;;16.03;75.58;93309.88;5092537;28;20028;-47
2022/05/28 03:10:39;;;;;;;9.10;5.95;;;;;;;16.09;75.69;93323.53;5110618;28;20054;-50
2022/05/28 03:13:06;;;;;;;16.92;7.00;;;;;;;16.19;74.79;93313.09;5113051;28;20015;-48
2022/05/28 03:15:32;;;;;;;17.60;5.50;;;;;;;16.27;72.43;93283.75;5112631;28;20489;-48
2022/05/28 03:17:59;;;;;;;11.82;6.40;;;;;;;16.37;73.56;93278.16;5112962;28;20028;-49
2022/05/28 03:20:26;;;;;;;19.20;5.65;;;;;;;16.43;74.14;93276.53;5112555;28;20037;-49
2022/05/28 03:22:51;;;;;;;11.45;5.20;;;;;;;16.51;73.47;93290.31;5112422;28;20433;-49
2022/05/28 03:25:17;;;;;;;14.23;5.45;;;;;;;16.63;73.82;93285.59;5112796;28;20084;-48
2022/05/28 03:27:42;;;;;;;22.05;5.35;;;;;;;16.61;73.90;93291.72;5112469;28;20505;-48
2022/05/28 03:30:09;;;;;;;16.52;5.40;;;;;;;16.74;74.37;93298.16;5112337;28;20028;-47
2022/05/28 03:32:34;;;;;;;22.23;6.70;;;;;;;16.78;74.26;93293.59;5112673;28;20058;-48
2022/05/28 03:34:59;;;;;;;13.50;6.55;;;;;;;16.87;75.96;93295.59;5112542;28;20477;-50
2022/05/28 03:37:25;;;;;;;22.38;6.45;;;;;;;16.87;77.09;93284.44;5112587;28;20481;-49
2022/05/28 03:39:51;;;;;;;14.95;6.10;;;;;;;16.89;79.26;93292.22;5112173;28;20436;-50
2022/05/28 03:42:16;;;;;;;26.90;7.40;;;;;;;16.83;79.43;93292.53;5111214;28;20114;-49
2022/05/28 03:44:41;;;;;;;28.52;7.25;;;;;;;16.80;79.54;93281.84;5092043;28;20024;-48
2022/05/28 03:47:07;;;;;;;19.95;6.10;;;;;;;16.87;79.67;93275.34;5091956;28;20036;-47
2022/05/28 03:49:35;;;;;;;12.05;5.22;;;;;;;16.92;78.28;93271.50;5091951;28;20028;-47
2022/05/28 03:52:01;;;;;;;10.43;5.50;;;;;;;16.85;79.33;93266.84;5091942;28;20458;-48
2022/05/28 03:54:27;;;;;;;11.45;5.43;;;;;;;16.87;80.71;93256.53;5091488;28;20107;-48
2022/05/28 03:56:57;;;;;;;8.05;4.57;;;;;;;16.93;78.45;93254.19;5091873;28;20056;-49
2022/05/28 03:59:22;;;;;;;12.63;5.85;;;;;;;16.91;79.48;93242.16;5090457;28;20028;-49
2022/05/28 04:01:48;;;;;;;9.35;5.60;;;;;;;16.85;80.28;93247.34;5091630;28;20031;-48
2022/05/28 04:04:13;;;;;;;8.85;5.25;;;;;;;16.89;80.65;93258.75;5091675;28;20032;-49
2022/05/28 04:06:39;;;;;;;8.82;6.95;;;;;;;16.87;79.17;93253.06;5091530;28;20596;-48
2022/05/28 04:09:06;;;;;;;11.00;6.10;;;;;;;16.74;78.49;93261.91;5097243;28;20019;-48
2022/05/28 04:11:31;;;;;;;11.55;5.60;;;;;;;16.85;79.37;93264.06;5111489;28;20436;-48
2022/05/28 04:13:57;;;;;;;19.92;6.68;;;;;;;16.95;79.95;93273.84;5111847;28;20027;-48
2022/05/28 04:16:24;;;;;;;10.27;5.68;;;;;;;16.90;79.56;93271.38;5111484;28;20027;-49
2022/05/28 04:18:50;;;;;;;8.82;5.28;;;;;;;17.01;78.72;93257.50;5111443;28;20031;-47
2022/05/28 04:21:17;;;;;;;13.60;6.07;;;;;;;16.95;79.51;93262.69;5111667;27;20081;-51
2022/05/28 04:23:42;;;;;;;15.43;7.38;;;;;;;17.00;80.77;93272.06;5110577;27;20031;-48
2022/05/28 04:26:08;;;;;;;9.07;6.60;;;;;;;17.03;81.06;93268.81;5111320;28;20034;-48
2022/05/28 04:28:33;;;;;;;9.23;6.28;;;;;;;17.09;80.58;93263.63;5111591;28;20065;-47
2022/05/28 04:30:59;;;;;;;12.25;6.10;;;;;;;16.98;81.19;93260.78;5111259;28;20019;-48
2022/05/28 04:33:24;;;;;;;8.35;4.95;;;;;;;16.93;82.06;93247.88;5111235;28;20026;-49
2022/05/28 04:35:50;;;;;;;15.57;5.55;;;;;;;17.01;81.85;93240.03;5111186;28;20024;-47
2022/05/28 04:38:15;;;;;;;9.85;5.30;;;;;;;17.02;82.25;93250.59;5111216;28;20072;-49
2022/05/28 04:40:41;;;;;;;9.57;5.18;;;;;;;17.06;82.35;93236.94;5092030;28;20030;-47
2022/05/28 04:43:06;;;;;;;11.63;6.40;;;;;;;16.82;82.67;93240.88;5090677;28;20024;-47
2022/05/28 04:45:32;;;;;;;16.65;6.93;;;;;;;16.89;81.82;93264.34;5090642;28;20035;-49
2022/05/28 04:47:57;;;;;;;13.63;6.07;;;;;;;16.74;81.16;93262.63;5090937;28;20066;-49
2022/05/28 04:50:23;;;;;;;10.82;5.50;;;;;;;16.61;81.96;93277.78;5090611;28;20024;-48
2022/05/28 04:52:48;;;;;;;8.48;4.97;;;;;;;16.47;81.73;93271.22;5090852;28;20435;-48
2022/05/28 04:55:14;;;;;;;13.57;4.53;;;;;;;16.42;82.02;93261.13;5090548;28;20031;-49
2022/05/28 04:57:39;;;;;;;16.38;4.68;;;;;;;16.53;75.76;93257.00;5090721;28;20053;-51
2022/05/28 05:00:11;;;;;;;10.35;4.35;;;;;;;16.74;78.88;93265.41;5090790;28;20392;-50
2022/05/28 05:02:37;;;;;;;6.63;4.05;;;;;;;16.96;78.58;93283.66;5090695;28;20024;-48
2022/05/28 05:05:03;;;;;;;12.65;5.72;;;;;;;17.10;80.46;93290.22;5090685;28;20028;-50
2022/05/28 05:07:28;;;;;;;11.82;4.68;;;;;;;17.15;79.28;93308.66;5090690;28;20458;-51
2022/05/28 05:09:54;;;;;;;10.88;5.72;;;;;;;17.27;78.96;93333.88;5102902;28;20106;-50
2022/05/28 05:12:20;;;;;;;22.92;7.10;;;;;;;17.25;79.29;93359.59;5110619;28;20016;-50
2022/05/28 05:14:45;;;;;;;12.00;6.63;;;;;;;17.38;79.99;93361.13;5110670;28;20055;-50
2022/05/28 05:17:11;;;;;;;90.53;27.38;;;;;;;17.40;79.85;93347.31;5110549;28;20057;-50
2022/05/28 05:19:36;;;;;;;30.17;9.82;;;;;;;17.42;78.05;93322.31;5110798;28;20049;-49
2022/05/28 05:22:02;;;;;;;15.57;5.85;;;;;;;17.58;77.39;93301.09;5110700;28;20557;-53
2022/05/28 05:24:27;;;;;;;10.98;4.85;;;;;;;17.63;77.41;93297.22;5110169;28;20125;-52
2022/05/28 05:26:52;;;;;;;10.48;4.45;;;;;;;17.71;78.09;93289.41;5109741;28;20477;-50
2022/05/28 05:29:18;;;;;;;12.07;4.20;;;;;;;17.79;78.06;93280.81;5110408;28;20063;-50
2022/05/28 05:31:43;;;;;;;9.15;4.43;;;;;;;17.75;78.56;93278.50;5110817;28;20055;-48
2022/05/28 05:34:09;;;;;;;13.63;4.82;;;;;;;17.65;78.41;93269.44;5112244;28;20416;-49
2022/05/28 05:36:35;;;;;;;13.68;5.55;;;;;;;17.52;79.20;93275.56;5098573;28;20047;-49
2022/05/28 05:39:01;;;;;;;19.73;5.65;;;;;;;17.43;80.76;93279.16;5094497;28;20028;-48
2022/05/28 05:41:27;;;;;;;9.50;5.68;;;;;;;17.38;80.44;93283.72;5092507;28;20100;-49
2022/05/28 05:43:52;;;;;;;12.77;5.93;;;;;;;17.41;80.31;93292.97;5094077;28;20036;-49
2022/05/28 05:46:18;;;;;;;12.18;5.57;;;;;;;17.53;80.31;93304.22;5092773;28;20020;-48
2022/05/28 05:48:44;;;;;;;12.52;5.80;;;;;;;17.46;79.80;93303.06;5094285;28;20145;-49
2022/05/28 05:51:12;;;;;;;11.25;5.68;;;;;;;17.46;79.07;93303.06;5094206;28;20047;-48
2022/05/28 05:53:38;;;;;;;44.97;14.35;;;;;;;17.32;79.81;93302.88;5093904;28;20485;-49
2022/05/28 05:56:04;;;;;;;19.10;8.35;;;;;;;17.25;81.79;93301.00;5094135;28;20062;-50
2022/05/28 05:58:30;;;;;;;15.80;6.32;;;;;;;17.33;81.49;93304.31;5093661;28;20038;-49
2022/05/28 06:00:56;;;;;;;16.77;7.03;;;;;;;17.34;82.45;93299.47;5093770;28;20111;-48
2022/05/28 06:03:21;;;;;;;13.18;5.90;;;;;;;17.18;83.12;93295.59;5093607;28;20028;-48
2022/05/28 06:05:47;;;;;;;15.63;4.93;;;;;;;17.17;82.64;93308.78;5093611;28;20024;-49
2022/05/28 06:08:15;;;;;;;15.45;5.22;;;;;;;17.27;82.24;93305.97;5093905;28;20031;-48
2022/05/28 06:10:42;;;;;;;12.63;4.47;;;;;;;17.40;81.65;93297.06;5112489;28;20051;-48
2022/05/28 06:13:08;;;;;;;14.50;5.30;;;;;;;17.42;81.94;93297.94;5113877;28;20024;-49
2022/05/28 06:15:33;;;;;;;8.30;5.57;;;;;;;17.46;82.48;93294.69;5113869;28;20028;-48
2022/05/28 06:17:59;;;;;;;13.52;5.72;;;;;;;17.51;82.01;93284.53;5113801;28;20054;-49
2022/05/28 06:20:24;;;;;;;11.07;5.40;;;;;;;17.58;81.33;93280.81;5113655;28;20462;-49
2022/05/28 06:22:50;;;;;;;10.05;5.72;;;;;;;17.66;81.33;93284.13;5108745;27;20034;-51
2022/05/28 06:25:15;;;;;;;10.75;6.13;;;;;;;17.78;80.75;93279.34;5093496;28;20020;-48
2022/05/28 06:27:41;;;;;;;13.38;6.80;;;;;;;17.80;80.18;93269.03;5093219;28;20024;-49
2022/05/28 06:30:07;;;;;;;13.23;6.00;;;;;;;17.87;80.66;93275.72;5093189;28;20032;-49
2022/05/28 06:32:32;;;;;;;13.13;5.32;;;;;;;18.00;80.05;93273.13;5106403;28;20084;-50
2022/05/28 06:34:58;;;;;;;15.50;5.30;;;;;;;18.21;78.92;93274.41;5113728;28;20027;-49
2022/05/28 06:37:24;;;;;;;6.15;4.65;;;;;;;18.65;77.82;93279.97;5113744;28;20496;-48
2022/05/28 06:39:50;;;;;;;9.05;5.20;;;;;;;19.17;75.40;93277.56;5113697;28;20024;-50
2022/05/28 06:42:16;;;;;;;14.70;6.13;;;;;;;19.60;73.75;93278.75;5113585;28;20495;-50
2022/05/28 06:44:41;;;;;;;8.38;5.00;;;;;;;19.89;73.29;93280.38;5104678;28;20749;-50
2022/05/28 06:47:07;;;;;;;15.40;4.72;;;;;;;20.38;72.13;93276.16;5089770;28;20039;-48
2022/05/28 06:49:32;;;;;;;6.88;3.70;;;;;;;20.84;69.94;93275.13;5089251;28;20027;-49
2022/05/28 06:51:58;;;;;;;8.70;3.63;;;;;;;21.24;66.66;93268.88;5087531;28;20471;-47
2022/05/28 06:54:23;;;;;;;9.85;3.88;;;;;;;21.59;63.24;93272.06;5089221;28;20035;-50
2022/05/28 06:56:49;;;;;;;7.68;3.20;;;;;;;21.96;62.80;93274.63;5089018;28;20054;-49
2022/05/28 06:59:14;;;;;;;8.05;3.33;;;;;;;22.38;62.05;93268.25;5089274;28;20116;-50
2022/05/28 07:01:40;;;;;;;8.20;3.45;;;;;;;22.87;61.04;93264.94;5089370;28;20059;-49
2022/05/28 07:04:05;;;;;;;8.13;3.42;;;;;;;22.99;57.50;93252.13;5089790;28;20124;-49
2022/05/28 07:06:32;;;;;;;21.88;4.85;;;;;;;23.38;57.80;93251.75;5090347;28;20063;-52
2022/05/28 07:08:58;;;;;;;8.07;3.42;;;;;;;23.88;56.52;93237.00;5094754;28;20031;-49
2022/05/28 07:11:23;;;;;;;13.75;3.33;;;;;;;24.86;52.85;93242.34;5104591;28;20048;-50
2022/05/28 07:13:49;;;;;;;8.80;3.05;;;;;;;25.96;50.23;93247.72;5092227;28;20031;-49
2022/05/28 07:16:14;;;;;;;9.38;3.53;;;;;;;26.70;48.33;93247.34;5092600;28;20028;-50
2022/05/28 07:18:41;;;;;;;8.18;3.17;;;;;;;27.21;45.56;93243.19;5092522;28;20031;-49
2022/05/28 07:21:08;;;;;;;9.77;3.20;;;;;;;27.99;41.80;93239.75;5092496;28;20031;-50
2022/05/28 07:23:34;;;;;;;9.52;3.00;;;;;;;29.32;40.55;93248.63;5092011;28;20505;-49
2022/05/28 07:26:25;;;;;;;9.98;2.95;;;;;;;30.31;36.64;93251.31;5092414;28;20026;-49
2022/05/28 07:29:10;;;;;;;9.68;3.38;;;;;;;31.34;34.77;93250.78;5105854;28;20031;-49
2022/05/28 07:31:36;;;;;;;9.90;2.35;;;;;;;31.91;33.77;93262.91;5112287;28;20019;-49
2022/05/28 07:34:01;;;;;;;14.13;2.60;;;;;;;32.59;32.83;93242.94;5112225;28;20111;-51
2022/05/28 07:36:27;;;;;;;10.07;2.22;;;;;;;32.85;31.17;93237.44;5112537;28;20034;-48
2022/05/28 07:38:53;;;;;;;10.65;2.17;;;;;;;32.58;29.93;93233.66;5112520;28;20082;-48
2022/05/28 07:41:24;;;;;;;7.95;2.42;;;;;;;32.79;30.46;93223.81;5111864;28;20053;-50
2022/05/28 07:43:51;;;;;;;8.07;2.33;;;;;;;33.65;30.38;93225.06;5112387;28;20095;-50
2022/05/28 07:46:24;;;;;;;7.93;2.47;;;;;;;34.42;28.74;93221.00;5112070;28;20032;-49
2022/05/28 07:48:50;;;;;;;8.90;2.08;;;;;;;34.87;27.04;93205.25;5112102;28;20046;-49
2022/05/28 07:51:16;;;;;;;8.63;2.25;;;;;;;34.55;27.44;93218.88;5111417;28;20557;-49
2022/05/28 07:53:41;;;;;;;8.13;2.42;;;;;;;34.89;27.05;93221.78;5111927;28;20035;-50
2022/05/28 07:56:08;;;;;;;7.30;2.28;;;;;;;34.65;26.66;93213.16;5111970;28;20031;-49
2022/05/28 07:58:34;;;;;;;9.27;2.38;;;;;;;33.82;28.00;93215.84;5112085;28;20405;-48
2022/05/28 08:00:59;;;;;;;8.73;2.22;;;;;;;34.21;27.94;93217.41;5112204;28;20035;-49
2022/05/28 08:03:25;;;;;;;3.90;1.70;;;;;;;34.36;26.34;93209.53;5111643;28;20488;-48
2022/05/28 08:05:52;;;;;;;7.80;2.13;;;;;;;34.09;26.97;93219.53;5111967;28;20032;-49
2022/05/28 08:08:19;;;;;;;7.30;2.13;;;;;;;34.80;26.50;93214.59;5108482;28;20032;-49
2022/05/28 08:10:45;;;;;;;9.38;2.03;;;;;;;34.48;25.65;93208.84;5111104;28;20043;-48
2022/05/28 08:13:13;;;;;;;4.53;1.90;;;;;;;34.46;26.98;93206.66;5111610;28;20037;-50
2022/05/28 08:15:41;;;;;;;8.13;2.28;;;;;;;34.04;28.23;93207.34;5111893;28;20027;-49
2022/05/28 08:18:07;;;;;;;9.25;2.38;;;;;;;33.43;28.85;93208.50;5111827;28;20110;-49
2022/05/28 08:23:18;;;;;;;6.63;2.40;;;;;;;33.04;28.02;93206.84;5111331;28;20092;-49
2022/05/28 08:25:45;;;;;;;7.40;2.15;;;;;;;32.56;29.40;93213.63;5111624;28;20046;-49
2022/05/28 08:28:12;;;;;;;9.65;2.35;;;;;;;33.14;28.93;93201.91;5111251;28;20027;-51
2022/05/28 08:30:38;;;;;;;9.52;2.35;;;;;;;33.50;27.21;93207.09;5111551;28;20027;-48
2022/05/28 08:33:05;;;;;;;5.07;2.00;;;;;;;34.35;26.89;93208.81;5111533;28;20024;-49
2022/05/28 08:35:30;;;;;;;8.63;2.20;;;;;;;35.03;25.86;93201.69;5111109;28;20027;-50
2022/05/28 08:37:56;;;;;;;13.70;2.63;;;;;;;34.86;24.99;93200.25;5111238;28;20038;-48
2022/05/28 08:40:23;;;;;;;12.18;2.25;;;;;;;34.09;25.58;93203.03;5111009;27;20035;-48
2022/05/28 08:42:50;;;;;;;7.22;1.90;;;;;;;34.04;25.84;93204.47;5110143;28;20034;-49
2022/05/28 08:45:16;;;;;;;9.48;2.28;;;;;;;33.36;26.92;93196.28;5111017;28;20031;-47
2022/05/28 08:47:44;;;;;;;6.00;1.92;;;;;;;33.79;26.29;93190.75;5109774;28;20034;-49
2022/05/28 08:50:10;;;;;;;10.55;2.53;;;;;;;34.35;26.17;93191.63;5111048;28;20099;-48
2022/05/28 08:52:48;;;;;;;5.80;2.22;;;;;;;34.22;26.00;93200.91;5110884;28;20564;-47
2022/05/28 08:55:17;;;;;;;5.13;2.00;;;;;;;34.38;27.44;93188.75;5110911;28;20065;-48
2022/05/28 08:57:57;;;;;;;5.95;1.75;;;;;;;34.26;24.94;93190.16;5109904;28;20458;-50
2022/05/28 09:00:44;;;;;;;8.00;2.15;;;;;;;33.79;26.43;93187.88;5110755;28;20031;-48
2022/05/28 09:03:27;;;;;;;6.95;2.38;;;;;;;33.91;27.16;93194.38;5111060;28;20468;-50
2022/05/28 09:06:01;;;;;;;13.68;2.60;;;;;;;34.40;26.56;93191.63;5110757;28;20046;-48
2022/05/28 09:08:39;;;;;;;5.60;2.17;;;;;;;35.32;26.39;93196.59;5108166;28;20028;-49
2022/05/28 09:11:19;;;;;;;9.40;2.30;;;;;;;35.67;25.47;93195.09;5090335;28;20483;-48
2022/05/28 09:13:50;;;;;;;7.00;2.00;;;;;;;35.51;25.32;93190.13;5089084;28;20092;-50
2022/05/28 09:16:28;;;;;;;8.40;2.67;;;;;;;35.55;24.68;93190.09;5090302;28;20027;-49
2022/05/28 09:18:54;;;;;;;;;;;;;;;35.26;26.52;93185.16;5089866;28;20398;-47
2022/05/28 09:21:21;;;;;;;8.73;2.60;;;;;;;34.89;25.96;93179.44;5090415;28;19969;-48
2022/05/28 09:24:01;;;;;;;5.88;2.50;;;;;;;34.08;27.19;93177.97;5093179;28;20039;-47
2022/05/28 09:26:30;;;;;;;12.35;2.88;;;;;;;33.88;27.75;93177.88;5109388;28;20023;-49
2022/05/28 09:29:17;;;;;;;7.55;2.10;;;;;;;34.16;27.93;93167.22;5110817;28;20488;-48
2022/05/28 09:32:21;;;;;;;12.20;2.83;;;;;;;34.32;25.90;93163.69;5110564;28;20511;-49
2022/05/28 09:35:05;;;;;;;10.68;2.92;;;;;;;34.48;26.30;93151.50;5109537;28;20034;-48
2022/05/28 09:37:56;;;;;;;8.07;2.40;;;;;;;33.91;26.58;93150.69;5110478;28;20059;-51
2022/05/28 09:40:33;;;;;;;6.05;2.55;;;;;;;34.51;26.62;93147.94;5109493;28;20031;-49
2022/05/28 09:43:31;;;;;;;6.00;2.27;;;;;;;35.26;25.03;93148.53;5110676;28;20100;-49
2022/05/28 09:46:26;;;;;;;8.02;2.38;;;;;;;36.07;23.49;93148.91;5110467;28;20809;-48
2022/05/28 09:49:21;;;;;;;5.82;2.47;;;;;;;37.01;23.52;93155.41;5109397;28;20031;-47
2022/05/28 09:52:04;;;;;;;9.43;2.53;;;;;;;37.68;21.43;93141.69;5109338;28;20518;-50
2022/05/28 09:54:33;;;;;;;6.70;2.72;;;;;;;38.02;21.41;93140.53;5110521;28;20102;-48
2022/05/28 09:57:11;;;;;;;16.23;3.30;;;;;;;37.64;22.30;93135.28;5110510;28;20019;-50
2022/05/28 09:59:43;;;;;;;9.23;2.75;;;;;;;37.10;22.43;93142.34;5110507;28;20071;-50
2022/05/28 10:02:14;;;;;;;9.32;2.70;;;;;;;36.64;21.91;93128.38;5110144;28;20084;-48
2022/05/28 10:05:04;;;;;;;11.52;3.03;;;;;;;36.61;22.31;93127.69;5110452;28;20031;-49
2022/05/28 10:07:34;;;;;;;6.47;3.38;;;;;;;36.90;22.83;93128.16;5110217;28;20492;-49
2022/05/28 10:10:00;;;;;;;43.85;4.95;;;;;;;36.97;23.25;93127.34;5109565;28;20038;-49
2022/05/28 10:12:32;;;;;;;6.78;2.55;;;;;;;36.78;22.74;93122.50;5108881;28;20038;-47
2022/05/28 10:15:12;;;;;;;6.20;2.65;;;;;;;36.69;23.38;93127.59;5110428;28;20075;-47
2022/05/28 10:17:38;;;;;;;12.70;4.40;;;;;;;36.59;24.49;93121.22;5110308;28;20024;-47
2022/05/28 10:20:13;;;;;;;9.98;3.08;;;;;;;36.81;22.94;93121.75;5108792;28;20027;-49
2022/05/28 10:22:39;;;;;;;5.93;3.05;;;;;;;36.94;22.41;93123.09;5112779;28;20454;-48
2022/05/28 10:25:10;;;;;;;9.20;2.83;;;;;;;37.44;22.85;93109.59;5112460;28;20023;-49
2022/05/28 10:27:52;;;;;;;7.20;2.80;;;;;;;37.55;22.07;93111.63;5112381;28;20042;-49
2022/05/28 10:30:34;;;;;;;8.82;3.08;;;;;;;36.72;23.38;93114.63;5113886;28;20050;-48
2022/05/28 10:33:14;;;;;;;8.70;2.90;;;;;;;36.77;24.78;93113.16;5113652;28;20026;-48
2022/05/28 10:35:41;;;;;;;10.85;2.88;;;;;;;36.90;21.80;93102.25;5112671;28;20450;-49
2022/05/28 10:38:26;;;;;;;6.25;2.75;;;;;;;35.87;24.31;93099.44;5113518;28;20027;-47
2022/05/28 10:40:56;;;;;;;7.28;3.00;;;;;;;36.51;24.56;93104.78;5113433;28;20032;-48
2022/05/28 10:43:24;;;;;;;10.95;2.75;;;;;;;37.62;23.12;93089.91;5113532;28;20522;-52
2022/05/28 10:45:55;;;;;;;10.73;4.03;;;;;;;36.93;22.76;93090.00;5112753;28;20023;-48
2022/05/28 10:48:20;;;;;;;8.07;2.95;;;;;;;36.15;23.57;93097.13;5112413;28;20420;-47
2022/05/28 10:50:50;;;;;;;13.00;3.20;;;;;;;34.48;25.35;93106.31;5113277;27;20023;-48
2022/05/28 10:53:41;;;;;;;15.50;4.20;;;;;;;33.17;28.88;93091.75;5111922;28;20477;-51
2022/05/28 10:56:44;;;;;;;12.25;3.20;;;;;;;32.28;29.25;93093.34;5113120;28;20031;-48
2022/05/28 10:59:29;;;;;;;13.07;3.55;;;;;;;31.25;30.47;93094.47;5112998;28;20022;-46
2022/05/28 11:02:13;;;;;;;8.80;3.63;;;;;;;30.78;32.04;93092.44;5111765;28;20035;-48
2022/05/28 11:05:01;;;;;;;31.05;4.43;;;;;;;30.40;33.57;93092.63;5113183;28;20059;-46
2022/05/28 11:07:27;;;;;;;;;;;;;;;30.30;33.64;93089.63;5112281;28;20038;-49
2022/05/28 11:10:32;;;;;;;9.13;3.37;;;;;;;29.76;35.13;93090.16;5112289;28;19912;-47
2022/05/28 11:13:24;;;;;;;8.57;3.72;;;;;;;28.91;36.50;93082.13;5112832;28;20036;-47
2022/05/28 11:16:07;;;;;;;7.55;3.33;;;;;;;28.51;35.91;93064.22;5112773;28;20517;-47
2022/05/28 11:18:45;;;;;;;7.30;3.60;;;;;;;28.29;37.68;93080.78;5112621;28;20055;-47
2022/05/28 11:21:20;;;;;;;9.73;4.15;;;;;;;28.27;38.95;93081.47;5100129;28;20036;-47
2022/05/28 11:23:48;;;;;;;10.52;3.72;;;;;;;28.07;38.55;93080.28;5092539;28;20032;-48
2022/05/28 11:26:13;;;;;;;9.90;3.47;;;;;;;28.02;38.71;93073.81;5092197;28;20520;-51
2022/05/28 11:28:57;;;;;;;10.50;4.18;;;;;;;27.94;39.33;93070.72;5092418;28;20024;-47
2022/05/28 11:31:43;;;;;;;7.82;4.05;;;;;;;27.74;41.11;93078.78;5091694;28;20024;-48
2022/05/28 11:34:19;;;;;;;15.32;4.20;;;;;;;27.77;39.81;93069.63;5092376;28;20031;-48
2022/05/28 11:37:27;;;;;;;11.52;3.35;;;;;;;27.80;41.46;93073.25;5091094;28;20039;-46
2022/05/28 11:40:05;;;;;;;10.18;4.47;;;;;;;28.40;40.42;93065.41;5090594;28;20493;-48
2022/05/28 11:42:48;;;;;;;9.77;3.67;;;;;;;28.25;40.89;93057.97;5091805;28;20028;-47
2022/05/28 11:45:20;;;;;;;10.82;3.05;;;;;;;27.72;40.11;93068.09;5091867;28;20031;-48